Time;durP1;ratioP1;P1;durP2;ratioP2;P2;SDS_P1;SDS_P2;PMS_P1;PMS_P2;Temp;Humidity;BMP_temperature;BMP_pressure;BME280_temperature;BME280_humidity;BME280_pressure;Samples;Min_cycle;Max_cycle;Signal;HPM_P1;HPM_P2
2022/03/22 00:00:49;;;;;;;17.50;9.48;;;;;;;8.75;60.77;101475.88;5104525;28;20028;-71
2022/03/22 00:03:15;;;;;;;17.52;9.25;;;;;;;8.69;60.75;101469.72;5090667;28;20039;-72
2022/03/22 00:05:42;;;;;;;17.52;8.48;;;;;;;8.69;62.45;101475.00;5091214;28;20102;-72
2022/03/22 00:08:09;;;;;;;16.25;8.85;;;;;;;8.54;63.61;101480.34;5104128;28;20538;-72
2022/03/22 00:10:36;;;;;;;14.05;8.82;;;;;;;8.34;64.78;101475.06;5108193;28;20126;-72
2022/03/22 00:13:04;;;;;;;16.48;9.20;;;;;;;8.31;64.85;101472.41;5108335;28;20027;-71
2022/03/22 00:15:30;;;;;;;17.73;8.65;;;;;;;8.40;64.81;101476.81;5087205;28;20046;-72
2022/03/22 00:17:55;;;;;;;16.83;9.23;;;;;;;8.31;64.22;101463.56;5100471;28;20048;-72
2022/03/22 00:20:21;;;;;;;22.88;9.98;;;;;;;8.46;64.09;101480.34;5106068;28;20126;-72
2022/03/22 00:22:48;;;;;;;15.90;8.27;;;;;;;8.52;63.01;101483.00;5108449;28;20093;-71
2022/03/22 00:25:16;;;;;;;15.80;8.38;;;;;;;8.46;62.27;101468.84;5108621;28;20820;-71
2022/03/22 00:27:55;;;;;;;16.90;9.40;;;;;;;8.45;62.95;101483.00;5094114;28;20107;-71
2022/03/22 00:30:26;;;;;;;19.05;8.98;;;;;;;8.32;64.16;101462.69;5089111;28;20024;-72
2022/03/22 00:32:54;;;;;;;17.20;9.27;;;;;;;8.36;64.09;101483.00;5097890;28;20024;-72
2022/03/22 00:35:37;;;;;;;16.75;8.85;;;;;;;8.24;63.52;101470.63;5089744;28;20470;-72
2022/03/22 00:38:08;;;;;;;17.30;8.95;;;;;;;8.31;63.32;101480.34;5102594;28;20027;-72
2022/03/22 00:40:34;;;;;;;17.85;8.85;;;;;;;8.25;62.88;101482.13;5109822;28;20031;-72
2022/03/22 00:43:00;;;;;;;16.58;9.18;;;;;;;8.18;63.95;101480.31;5094657;28;20024;-71
2022/03/22 00:45:28;;;;;;;19.38;8.85;;;;;;;8.18;63.09;101485.63;5093165;28;20027;-71
2022/03/22 00:47:55;;;;;;;15.88;9.50;;;;;;;8.20;63.85;101483.84;5093130;28;20012;-72
2022/03/22 00:50:23;;;;;;;17.50;8.45;;;;;;;8.21;63.50;101480.31;5095040;28;20035;-72
2022/03/22 00:52:49;;;;;;;15.73;8.88;;;;;;;8.26;63.60;101478.56;5093282;28;20043;-73
2022/03/22 00:55:15;;;;;;;17.55;9.23;;;;;;;8.27;63.65;101490.97;5092896;28;20487;-71
2022/03/22 00:57:42;;;;;;;16.95;8.82;;;;;;;8.23;63.00;101478.56;5106518;28;20039;-71
2022/03/22 01:00:11;;;;;;;15.63;9.05;;;;;;;8.21;63.76;101475.00;5073571;28;20118;-73
2022/03/22 01:02:50;;;;;;;16.92;8.15;;;;;;;8.11;63.96;101476.78;5092642;28;20023;-72
2022/03/22 01:05:19;;;;;;;16.48;9.73;;;;;;;7.97;65.68;101476.75;5092489;28;20027;-72
2022/03/22 01:07:46;;;;;;;17.55;9.27;;;;;;;7.89;66.93;101477.66;5074883;28;20031;-72
2022/03/22 01:10:14;;;;;;;18.23;9.13;;;;;;;7.77;66.69;101473.22;5074169;28;20387;-72
2022/03/22 01:12:41;;;;;;;20.75;9.90;;;;;;;7.75;66.54;101480.28;5091241;28;20115;-72
2022/03/22 01:15:20;;;;;;;20.33;9.57;;;;;;;7.73;66.84;101483.78;5091056;28;20105;-72
2022/03/22 01:17:48;;;;;;;23.90;9.55;;;;;;;7.61;66.11;101471.41;5106785;28;20040;-72
2022/03/22 01:20:14;;;;;;;17.52;8.23;;;;;;;7.69;65.97;101488.19;5108564;28;20078;-72
2022/03/22 01:22:42;;;;;;;15.63;9.45;;;;;;;7.61;66.74;101486.44;5091127;28;20020;-72
2022/03/22 01:25:09;;;;;;;17.20;8.98;;;;;;;7.60;67.93;101482.88;5091117;28;20055;-72
2022/03/22 01:27:36;;;;;;;15.45;8.05;;;;;;;7.60;68.15;101474.94;5073765;28;20435;-72
2022/03/22 01:30:04;;;;;;;14.25;8.95;;;;;;;7.51;68.25;101474.91;5073437;28;20434;-72
2022/03/22 01:32:30;;;;;;;15.32;8.45;;;;;;;7.53;68.30;101478.44;5091452;28;20115;-72
2022/03/22 01:34:55;;;;;;;14.63;7.47;;;;;;;7.57;67.71;101477.59;5072579;28;20486;-72
2022/03/22 01:37:20;;;;;;;16.40;9.85;;;;;;;7.47;67.64;101475.78;5091729;28;20020;-72
2022/03/22 01:39:46;;;;;;;18.38;8.82;;;;;;;7.47;67.32;101473.13;5091666;28;20073;-71
2022/03/22 01:42:11;;;;;;;13.65;8.05;;;;;;;7.26;67.99;101462.47;5090694;28;20502;-71
2022/03/22 01:44:37;;;;;;;16.25;9.27;;;;;;;7.23;69.95;101454.50;5091200;28;20032;-72
2022/03/22 01:47:03;;;;;;;16.33;9.15;;;;;;;7.27;71.28;101460.69;5074032;28;20024;-72
2022/03/22 01:49:29;;;;;;;16.40;8.68;;;;;;;7.08;71.25;101454.47;5092031;28;20035;-73
2022/03/22 01:51:55;;;;;;;25.58;9.75;;;;;;;7.08;70.83;101461.50;5091971;28;20028;-72
2022/03/22 01:54:21;;;;;;;13.93;8.63;;;;;;;6.96;70.31;101457.06;5094506;28;20024;-72
2022/03/22 01:56:46;;;;;;;18.38;9.60;;;;;;;6.91;70.00;101442.91;5091730;28;20031;-72
2022/03/22 01:59:13;;;;;;;19.73;9.23;;;;;;;6.89;69.49;101428.78;5091937;28;20422;-72
2022/03/22 02:07:07;;;;;;;15.23;9.32;;;;;;;6.84;71.24;101454.34;5101968;28;19934;-72
2022/03/22 02:09:33;;;;;;;19.58;9.05;;;;;;;6.84;71.21;101462.25;5096344;28;20027;-73
2022/03/22 02:11:59;;;;;;;20.27;9.32;;;;;;;6.75;71.60;101456.94;5110686;28;20024;-73
2022/03/22 02:14:25;;;;;;;15.82;8.52;;;;;;;6.75;71.63;101456.94;5110198;28;20386;-73
2022/03/22 02:16:50;;;;;;;15.45;8.77;;;;;;;6.54;71.66;101451.50;5105366;28;20012;-72
2022/03/22 02:19:16;;;;;;;17.52;8.38;;;;;;;6.64;72.03;101442.75;5073158;28;20077;-72
2022/03/22 02:21:42;;;;;;;18.52;9.50;;;;;;;6.57;72.45;101459.47;5073143;28;20115;-72
2022/03/22 02:24:08;;;;;;;17.73;9.32;;;;;;;6.54;72.86;101459.44;5073682;28;20058;-71
2022/03/22 02:26:34;;;;;;;15.38;9.15;;;;;;;6.49;73.04;101453.25;5091025;28;20044;-71
2022/03/22 02:29:00;;;;;;;18.67;9.55;;;;;;;6.44;72.95;101444.41;5089596;28;20114;-71
2022/03/22 02:31:28;;;;;;;17.20;8.85;;;;;;;6.40;73.50;101453.19;5091029;28;20395;-71
2022/03/22 02:33:53;;;;;;;17.25;9.35;;;;;;;6.35;73.94;101454.91;5091476;28;20016;-72
2022/03/22 02:36:19;;;;;;;19.02;10.02;;;;;;;6.35;73.94;101449.63;5090468;28;20363;-72
2022/03/22 02:38:45;;;;;;;18.10;9.07;;;;;;;6.32;73.37;101460.16;5090692;28;20035;-72
2022/03/22 02:41:16;;;;;;;18.33;9.48;;;;;;;6.27;73.13;101452.22;5095961;28;20076;-72
2022/03/22 02:43:42;;;;;;;19.95;9.88;;;;;;;6.13;73.79;101447.66;5091061;28;20528;-72
2022/03/22 02:46:07;;;;;;;18.95;9.48;;;;;;;6.09;74.06;101459.09;5073264;28;20036;-71
2022/03/22 02:48:34;;;;;;;18.08;9.88;;;;;;;5.96;74.39;101460.75;5091151;28;20042;-71
2022/03/22 02:51:00;;;;;;;19.50;9.98;;;;;;;5.91;75.41;101451.03;5071805;28;20024;-71
2022/03/22 02:53:25;;;;;;;18.70;10.23;;;;;;;5.93;75.73;101454.56;5091150;28;20097;-73
2022/03/22 02:55:50;;;;;;;15.35;8.77;;;;;;;5.88;74.75;101453.63;5090726;28;20024;-72
2022/03/22 02:58:16;;;;;;;17.63;9.13;;;;;;;5.70;75.01;101445.50;5072882;28;20016;-72
2022/03/22 03:00:41;;;;;;;21.58;11.20;;;;;;;5.59;74.83;101441.84;5092540;28;20404;-71
2022/03/22 03:03:07;;;;;;;16.35;8.52;;;;;;;5.67;75.58;101458.69;5072892;28;20107;-72
2022/03/22 03:05:33;;;;;;;17.65;9.68;;;;;;;5.61;75.80;101459.50;5090482;28;20028;-72
2022/03/22 03:07:59;;;;;;;17.98;9.35;;;;;;;5.39;76.04;101444.28;5072225;28;20042;-72
2022/03/22 03:10:24;;;;;;;16.98;9.50;;;;;;;5.36;76.20;101455.72;5072081;28;20051;-71
2022/03/22 03:13:01;;;;;;;16.83;10.07;;;;;;;5.33;76.54;101466.22;5090343;28;20066;-71
2022/03/22 03:15:26;;;;;;;18.13;8.95;;;;;;;5.28;76.69;101441.56;5090634;28;20024;-72
2022/03/22 03:17:52;;;;;;;18.23;9.93;;;;;;;5.30;76.33;101470.59;5105540;28;20015;-72
2022/03/22 03:20:17;;;;;;;17.05;9.30;;;;;;;5.21;76.58;101479.25;5091717;28;20078;-73
2022/03/22 03:22:43;;;;;;;14.02;9.00;;;;;;;5.21;76.69;101481.91;5092508;28;20084;-73
2022/03/22 03:25:09;;;;;;;16.58;8.70;;;;;;;5.12;76.10;101473.00;5111260;28;20027;-72
2022/03/22 03:27:35;;;;;;;20.27;9.23;;;;;;;5.09;76.37;101465.91;5110535;28;20427;-71
2022/03/22 03:30:01;;;;;;;15.45;8.90;;;;;;;5.02;76.83;101458.81;5110427;28;20419;-71
2022/03/22 03:32:27;;;;;;;17.48;8.65;;;;;;;5.10;76.71;101472.97;5110398;28;20107;-72
2022/03/22 03:34:52;;;;;;;17.73;9.30;;;;;;;5.03;76.84;101486.94;5110888;28;20122;-72
2022/03/22 03:37:18;;;;;;;16.63;10.10;;;;;;;4.87;77.33;101463.88;5096268;28;20024;-72
2022/03/22 03:39:44;;;;;;;15.68;9.18;;;;;;;4.88;78.00;101470.91;5089867;28;20025;-72
2022/03/22 03:42:09;;;;;;;22.40;10.02;;;;;;;4.99;77.12;101484.25;5089993;28;20464;-73
2022/03/22 03:47:22;;;;;;;18.45;10.07;;;;;;;4.95;77.11;101488.59;5089860;28;20035;-71
2022/03/22 03:49:53;;;;;;;20.77;9.88;;;;;;;5.02;77.02;101494.84;5089909;28;20099;-71
2022/03/22 03:52:22;;;;;;;15.70;8.88;;;;;;;5.04;77.37;101493.97;5089672;28;20024;-71
2022/03/22 03:54:49;;;;;;;18.73;9.82;;;;;;;5.00;76.92;101488.66;5089966;28;20024;-72
2022/03/22 03:57:15;;;;;;;18.70;9.57;;;;;;;4.87;76.53;101490.25;5092200;28;20050;-71
2022/03/22 03:59:41;;;;;;;20.70;9.10;;;;;;;4.86;76.69;101496.38;5089796;28;20407;-72
2022/03/22 04:02:07;;;;;;;18.48;9.55;;;;;;;4.88;77.34;101502.56;5095012;28;20012;-72
2022/03/22 04:04:35;;;;;;;17.25;8.60;;;;;;;4.92;78.02;101498.22;5071886;28;20032;-72
2022/03/22 04:07:04;;;;;;;19.38;9.77;;;;;;;4.88;78.56;101499.03;5091287;28;20027;-73
2022/03/22 04:09:31;;;;;;;18.65;10.70;;;;;;;4.88;78.43;101489.38;5075347;28;20036;-72
2022/03/22 04:11:56;;;;;;;17.20;9.65;;;;;;;5.06;77.37;101505.44;5093510;28;20112;-72
2022/03/22 04:14:23;;;;;;;18.50;9.27;;;;;;;4.93;77.23;101498.22;5094533;28;20809;-72
2022/03/22 04:16:49;;;;;;;18.80;10.05;;;;;;;4.88;77.21;101513.09;5096331;28;20019;-73
2022/03/22 04:19:15;;;;;;;18.58;9.43;;;;;;;4.86;77.48;101504.28;5093682;28;20093;-73
2022/03/22 04:21:41;;;;;;;17.15;8.63;;;;;;;4.91;77.05;101513.13;5093861;28;20027;-72
2022/03/22 04:24:10;;;;;;;17.27;8.90;;;;;;;4.95;77.64;101514.97;5093806;28;20020;-72
2022/03/22 04:26:40;;;;;;;16.73;9.48;;;;;;;4.85;78.32;101507.78;5075492;28;20498;-72
2022/03/22 04:34:39;;;;;;;21.88;9.63;;;;;;;5.00;76.89;101515.91;5098896;28;20035;-72
2022/03/22 04:37:06;;;;;;;17.25;9.32;;;;;;;5.10;76.11;101515.19;5093312;28;20032;-72
2022/03/22 04:39:33;;;;;;;21.17;9.82;;;;;;;4.90;76.34;101503.47;5093283;28;20030;-72
2022/03/22 04:41:59;;;;;;;20.02;8.55;;;;;;;4.81;77.23;101513.88;5093346;28;20020;-72
2022/03/22 04:44:28;;;;;;;18.58;9.40;;;;;;;4.86;77.90;101524.50;5093323;28;20432;-72
2022/03/22 04:46:55;;;;;;;16.13;9.18;;;;;;;4.73;78.28;101528.69;5093347;28;20019;-72
2022/03/22 04:49:20;;;;;;;16.50;9.60;;;;;;;4.74;78.05;101529.59;5092155;28;20066;-72
2022/03/22 04:57:15;;;;;;;;;;;;;;;4.43;78.77;101527.34;5093746;28;20506;-73
2022/03/22 04:59:42;;;;;;;20.95;8.27;;;;;;;4.35;78.72;101518.44;5092997;28;19916;-73
2022/03/22 05:02:09;;;;;;;19.95;9.43;;;;;;;4.36;78.63;101526.34;5092712;28;20016;-73
2022/03/22 05:04:34;;;;;;;21.63;9.63;;;;;;;4.32;78.80;101529.78;5093358;28;20028;-73
2022/03/22 05:07:00;;;;;;;21.10;9.40;;;;;;;4.29;78.96;101529.75;5098587;28;20038;-73
2022/03/22 05:09:25;;;;;;;20.08;9.07;;;;;;;4.33;78.72;101526.31;5113150;28;20029;-72
2022/03/22 05:11:51;;;;;;;19.15;8.80;;;;;;;4.45;78.00;101534.38;5112996;28;20030;-72
2022/03/22 05:14:16;;;;;;;18.48;8.65;;;;;;;4.48;78.30;101518.63;5113194;28;20024;-73
2022/03/22 05:16:43;;;;;;;16.77;10.27;;;;;;;4.59;77.79;101526.72;5107587;28;20020;-73
2022/03/22 05:19:08;;;;;;;23.88;9.77;;;;;;;4.66;77.79;101531.22;5091424;28;20048;-73
2022/03/22 05:21:33;;;;;;;38.95;11.77;;;;;;;4.74;77.75;101532.22;5092757;28;20020;-73
2022/03/22 05:23:59;;;;;;;23.02;8.82;;;;;;;4.64;77.63;101518.03;5092520;28;20570;-73
2022/03/22 05:26:28;;;;;;;23.55;10.15;;;;;;;4.75;77.59;101534.88;5074594;28;20415;-73
2022/03/22 05:28:53;;;;;;;18.23;9.27;;;;;;;4.65;78.46;101525.06;5073549;28;20020;-73
2022/03/22 05:31:21;;;;;;;15.70;8.70;;;;;;;4.64;78.38;101536.47;5092308;28;20024;-74
2022/03/22 05:33:47;;;;;;;22.42;10.27;;;;;;;4.69;78.54;101541.81;5092678;28;20486;-73
2022/03/22 05:36:12;;;;;;;16.60;9.65;;;;;;;4.63;78.20;101524.13;5092405;28;20464;-73
2022/03/22 05:38:38;;;;;;;16.98;8.98;;;;;;;4.67;77.63;101544.41;5092666;28;20020;-73
2022/03/22 05:41:04;;;;;;;15.80;8.90;;;;;;;4.52;75.88;101527.47;5091806;28;20020;-73
2022/03/22 05:43:30;;;;;;;16.00;9.65;;;;;;;4.41;75.70;101535.22;5092361;28;20031;-73
2022/03/22 05:45:56;;;;;;;18.20;9.77;;;;;;;4.30;75.65;101546.44;5092236;28;20036;-73
2022/03/22 05:48:23;;;;;;;21.70;8.98;;;;;;;4.30;75.86;101528.88;5074231;28;20020;-73
2022/03/22 05:50:49;;;;;;;17.13;9.48;;;;;;;4.31;76.68;101543.81;5091427;28;20483;-73
2022/03/22 05:53:15;;;;;;;15.30;8.50;;;;;;;4.39;76.80;101547.47;5092326;28;20062;-73
2022/03/22 05:55:41;;;;;;;16.58;9.13;;;;;;;4.31;77.41;101535.91;5093354;28;20036;-73
2022/03/22 05:58:08;;;;;;;20.60;9.82;;;;;;;4.50;77.61;101545.03;5110456;28;20096;-73
2022/03/22 06:00:34;;;;;;;20.70;10.68;;;;;;;4.57;77.20;101554.78;5111735;28;20058;-73
2022/03/22 06:03:00;;;;;;;15.13;8.38;;;;;;;4.63;77.04;101558.38;5109027;28;20027;-73
2022/03/22 06:05:28;;;;;;;20.35;8.32;;;;;;;5.05;78.20;101560.78;5096199;28;20562;-73
2022/03/22 06:07:55;;;;;;;15.40;9.05;;;;;;;5.62;77.55;101550.13;5094150;28;20532;-73
2022/03/22 06:10:21;;;;;;;16.88;8.35;;;;;;;6.22;74.58;101558.72;5091505;28;20030;-73
2022/03/22 06:12:52;;;;;;;15.88;9.02;;;;;;;6.46;71.75;101506.97;5090592;28;20028;-73
2022/03/22 06:15:23;;;;;;;15.55;9.05;;;;;;;7.93;69.49;101561.53;5077885;28;20031;-73
2022/03/22 06:17:57;;;;;;;17.02;8.50;;;;;;;9.36;62.41;101534.13;5099128;28;20483;-73
2022/03/22 06:20:26;;;;;;;20.42;11.00;;;;;;;11.02;54.18;101549.84;5072532;28;20113;-73
2022/03/22 06:22:52;;;;;;;20.25;9.35;;;;;;;12.14;50.96;101557.38;5091371;28;20020;-73
2022/03/22 06:25:18;;;;;;;17.27;9.40;;;;;;;13.02;47.68;101555.94;5073223;28;20020;-73
2022/03/22 06:27:47;;;;;;;18.17;8.40;;;;;;;13.81;45.42;101541.00;5073050;28;20051;-73
2022/03/22 06:30:15;;;;;;;17.55;8.40;;;;;;;14.89;43.60;101561.66;5090635;28;20028;-74
2022/03/22 06:32:52;;;;;;;16.70;8.38;;;;;;;15.30;41.63;101558.75;5072369;28;20032;-73
2022/03/22 06:35:24;;;;;;;24.92;11.27;;;;;;;16.43;39.44;101563.44;5091214;28;20031;-74
2022/03/22 06:37:51;;;;;;;23.92;12.07;;;;;;;16.88;38.04;101556.59;5090992;28;20046;-74
2022/03/22 06:40:19;;;;;;;20.00;11.80;;;;;;;17.59;35.95;101556.75;5093238;28;20026;-74
2022/03/22 06:42:45;;;;;;;19.58;11.40;;;;;;;17.91;35.41;101551.94;5074945;28;20077;-74
2022/03/22 06:45:11;;;;;;;19.98;10.40;;;;;;;18.51;34.60;101567.53;5091264;28;20103;-74
2022/03/22 06:47:40;;;;;;;19.23;10.95;;;;;;;18.55;33.86;101579.91;5091267;28;20058;-74
2022/03/22 06:50:08;;;;;;;23.20;11.15;;;;;;;19.13;32.82;101576.56;5072200;28;20081;-74
2022/03/22 06:52:34;;;;;;;19.70;11.48;;;;;;;18.97;32.89;101571.88;5072661;28;20111;-74
2022/03/22 06:55:00;;;;;;;19.30;10.30;;;;;;;19.10;32.41;101571.31;5090758;28;20551;-74
2022/03/22 06:57:28;;;;;;;20.30;10.07;;;;;;;19.24;32.01;101570.72;5090888;28;20027;-74
2022/03/22 06:59:54;;;;;;;15.30;8.57;;;;;;;19.53;31.82;101578.44;5090394;28;20024;-74
2022/03/22 07:02:23;;;;;;;21.60;10.35;;;;;;;19.16;32.41;101573.72;5090450;28;20160;-74
2022/03/22 07:04:49;;;;;;;20.88;11.10;;;;;;;19.37;32.75;101580.06;5090561;28;20475;-73
2022/03/22 07:07:15;;;;;;;20.10;11.23;;;;;;;19.84;32.26;101589.59;5090550;28;20024;-75
2022/03/22 07:09:42;;;;;;;19.52;10.27;;;;;;;20.40;30.34;101581.56;5090391;28;20383;-74
2022/03/22 07:12:07;;;;;;;17.08;10.25;;;;;;;20.82;30.85;101588.44;5090520;28;20024;-74
2022/03/22 07:14:33;;;;;;;19.25;10.00;;;;;;;21.48;29.23;101595.00;5090161;28;20028;-74
2022/03/22 07:16:58;;;;;;;20.77;10.75;;;;;;;21.26;28.22;101594.38;5077547;28;20044;-74
2022/03/22 07:19:24;;;;;;;17.33;10.80;;;;;;;21.64;27.81;101595.97;5091898;28;20032;-74
2022/03/22 07:21:50;;;;;;;17.15;10.25;;;;;;;22.10;27.01;101605.22;5097425;28;20605;-74
2022/03/22 07:24:19;;;;;;;19.08;10.05;;;;;;;21.46;27.75;101588.81;5075788;28;20114;-74
2022/03/22 07:26:45;;;;;;;21.40;12.10;;;;;;;21.45;27.74;101599.72;5087134;28;20495;-74
2022/03/22 07:29:12;;;;;;;23.70;11.40;;;;;;;21.44;28.55;101587.13;5081019;28;20023;-74
2022/03/22 07:31:38;;;;;;;20.02;9.80;;;;;;;21.98;28.11;101595.03;5090291;28;20031;-73
2022/03/22 07:34:15;;;;;;;20.80;9.82;;;;;;;22.46;27.17;101592.31;5090028;28;20072;-73
2022/03/22 07:36:46;;;;;;;19.08;10.23;;;;;;;22.75;26.86;101596.97;5078762;28;20118;-74
2022/03/22 07:39:13;;;;;;;17.58;9.70;;;;;;;22.65;26.35;101597.59;5108956;28;20038;-73
2022/03/22 07:41:43;;;;;;;21.00;10.00;;;;;;;22.69;25.98;101600.03;5109038;28;20047;-73
2022/03/22 07:44:12;;;;;;;17.08;10.13;;;;;;;22.49;27.29;101602.13;5106713;28;20027;-73
2022/03/22 07:46:37;;;;;;;19.20;9.98;;;;;;;22.23;27.74;101595.44;5089714;28;20434;-73
2022/03/22 07:54:31;;;;;;;15.15;9.65;;;;;;;21.71;28.39;101601.91;5109144;28;20034;-72
2022/03/22 07:56:57;;;;;;;16.15;10.32;;;;;;;21.60;29.47;101593.47;5090221;28;20389;-72
2022/03/22 07:59:25;;;;;;;17.02;9.77;;;;;;;21.35;29.46;101595.72;5078771;28;20028;-72
2022/03/22 08:01:51;;;;;;;16.73;9.57;;;;;;;20.77;29.36;101595.06;5092425;28;20019;-72
2022/03/22 08:04:17;;;;;;;21.70;9.73;;;;;;;20.60;30.23;101601.28;5091412;28;20093;-71
2022/03/22 08:06:43;;;;;;;16.20;9.38;;;;;;;20.45;30.05;101602.03;5099145;28;20039;-71
2022/03/22 08:09:09;;;;;;;15.93;9.23;;;;;;;20.41;29.83;101604.97;5089535;28;20043;-71
2022/03/22 08:11:34;;;;;;;18.35;9.32;;;;;;;19.70;29.92;101602.88;5092403;28;20024;-71
2022/03/22 08:14:01;;;;;;;17.10;9.88;;;;;;;19.67;31.06;101602.13;5089360;28;20042;-71
2022/03/22 08:16:27;;;;;;;14.93;8.45;;;;;;;19.91;31.28;101612.69;5093030;28;20330;-71
2022/03/22 08:18:53;;;;;;;15.93;8.68;;;;;;;20.05;32.00;101621.03;5089845;28;20111;-71
2022/03/22 08:21:19;;;;;;;17.75;8.65;;;;;;;20.30;31.37;101609.97;5107669;28;20054;-71
2022/03/22 08:23:45;;;;;;;15.73;8.18;;;;;;;20.24;30.39;101618.38;5105638;28;20080;-71
2022/03/22 08:26:10;;;;;;;16.08;8.43;;;;;;;20.42;30.29;101623.81;5106487;28;20031;-71
2022/03/22 08:28:36;;;;;;;14.10;8.13;;;;;;;20.38;31.08;101615.91;5100309;28;20034;-71
2022/03/22 08:31:02;;;;;;;18.95;9.57;;;;;;;19.92;31.11;101618.97;5105955;28;20034;-71
2022/03/22 08:33:27;;;;;;;16.50;8.73;;;;;;;19.71;31.52;101604.63;5091194;28;20035;-71
2022/03/22 08:35:53;;;;;;;18.00;9.60;;;;;;;19.65;32.48;101621.94;5103389;28;20166;-71
2022/03/22 08:38:20;;;;;;;16.95;9.55;;;;;;;19.81;32.41;101616.75;5071644;28;20130;-71
2022/03/22 08:40:47;;;;;;;17.50;9.95;;;;;;;19.71;31.36;101625.31;5109296;28;20040;-71
2022/03/22 08:43:12;;;;;;;17.63;9.85;;;;;;;19.75;31.84;101617.03;5087023;28;20114;-71
2022/03/22 08:45:38;;;;;;;16.48;9.10;;;;;;;19.61;31.44;101619.47;5105478;28;20028;-71
2022/03/22 08:48:10;;;;;;;17.83;9.50;;;;;;;19.47;33.26;101611.09;5081606;28;20490;-71
2022/03/22 08:50:42;;;;;;;14.18;8.60;;;;;;;19.74;32.17;101608.97;5096288;28;20032;-71
2022/03/22 08:53:07;;;;;;;22.27;9.52;;;;;;;19.89;32.33;101608.28;5110552;28;20060;-71
2022/03/22 08:55:33;;;;;;;17.98;9.43;;;;;;;19.96;32.34;101613.38;5098282;28;20408;-71
2022/03/22 08:58:05;;;;;;;16.95;8.85;;;;;;;20.03;32.17;101611.25;5100362;28;20020;-71
2022/03/22 09:00:32;;;;;;;16.38;9.63;;;;;;;19.48;32.61;101599.34;5092281;28;20020;-71
2022/03/22 09:02:58;;;;;;;16.20;9.10;;;;;;;19.71;31.37;101601.03;5092356;28;20085;-71
2022/03/22 09:08:07;;;;;;;16.58;9.35;;;;;;;20.92;29.96;101603.28;5093121;28;20089;-70
2022/03/22 09:10:34;;;;;;;14.93;9.27;;;;;;;21.22;31.12;101592.75;5092352;28;20028;-70
2022/03/22 09:13:00;;;;;;;15.48;8.95;;;;;;;20.57;30.09;101601.47;5074281;28;20124;-70
2022/03/22 09:15:27;;;;;;;17.77;9.13;;;;;;;20.71;29.07;101596.22;5092038;28;20044;-70
2022/03/22 09:17:56;;;;;;;15.10;9.43;;;;;;;20.67;30.28;101597.31;5107504;28;20032;-70
2022/03/22 09:20:23;;;;;;;18.95;10.55;;;;;;;20.49;29.97;101595.50;5111831;28;20495;-70
2022/03/22 09:22:51;;;;;;;14.88;8.73;;;;;;;20.55;29.29;101594.34;5094349;28;20052;-70
2022/03/22 09:25:17;;;;;;;16.25;9.57;;;;;;;20.80;29.67;101605.72;5092288;28;20031;-68
2022/03/22 09:27:43;;;;;;;14.05;8.48;;;;;;;21.13;28.57;101600.47;5092660;28;20098;-68
2022/03/22 09:30:09;;;;;;;20.98;8.68;;;;;;;21.32;30.38;101606.69;5091983;28;20433;-67
2022/03/22 09:32:36;;;;;;;14.85;8.73;;;;;;;21.63;28.35;101598.75;5091849;28;20107;-67
2022/03/22 09:35:07;;;;;;;14.73;9.05;;;;;;;21.99;30.34;101602.22;5092105;28;20031;-67
2022/03/22 09:37:37;;;;;;;16.02;8.35;;;;;;;22.01;30.54;101587.59;5092467;28;20058;-66
2022/03/22 09:40:04;;;;;;;14.00;9.07;;;;;;;22.01;30.61;101592.16;5091892;27;20039;-66
2022/03/22 09:42:30;;;;;;;16.38;8.75;;;;;;;21.88;30.27;101593.78;5102298;28;20028;-66
2022/03/22 09:44:58;;;;;;;17.13;10.48;;;;;;;21.83;30.85;101598.56;5097382;28;20026;-66
2022/03/22 09:47:24;;;;;;;18.98;8.80;;;;;;;21.47;29.45;101597.78;5111692;28;20023;-66
2022/03/22 09:49:51;;;;;;;18.58;10.02;;;;;;;21.66;30.76;101594.00;5112432;28;20072;-66
2022/03/22 09:52:16;;;;;;;19.67;9.73;;;;;;;21.97;30.66;101599.59;5111336;28;20693;-66
2022/03/22 09:54:42;;;;;;;16.23;9.45;;;;;;;22.57;28.43;101592.59;5110525;28;20075;-66
2022/03/22 09:57:07;;;;;;;17.92;9.70;;;;;;;22.35;29.44;101591.16;5109156;28;20027;-67
2022/03/22 09:59:36;;;;;;;18.25;10.18;;;;;;;21.94;29.57;101593.47;5105936;28;20099;-68
2022/03/22 10:02:04;;;;;;;17.05;9.65;;;;;;;21.64;30.40;101584.25;5091663;28;20899;-67
2022/03/22 10:04:36;;;;;;;19.63;10.05;;;;;;;21.96;30.00;101592.41;5091366;28;20020;-67
2022/03/22 10:07:05;;;;;;;19.50;10.15;;;;;;;21.77;29.27;101582.66;5091429;28;20054;-66
2022/03/22 10:09:36;;;;;;;18.23;9.73;;;;;;;22.51;30.29;101582.06;5094117;28;20055;-67
2022/03/22 10:12:03;;;;;;;17.90;9.02;;;;;;;22.66;28.39;101577.63;5090468;28;20436;-67
2022/03/22 10:14:40;;;;;;;14.80;9.93;;;;;;;22.59;27.79;101581.66;5091327;28;20039;-67
2022/03/22 10:17:15;;;;;;;17.58;9.25;;;;;;;22.49;28.67;101578.56;5073138;28;20410;-65
2022/03/22 10:19:45;;;;;;;18.75;10.48;;;;;;;23.01;29.29;101573.75;4561747;28;20036;-65
2022/03/22 10:22:11;;;;;;;15.30;10.02;;;;;;;23.37;28.88;101574.28;5093870;28;20027;-65
2022/03/22 10:24:45;;;;;;;18.25;9.77;;;;;;;23.67;27.67;101572.44;5074527;28;20526;-65
2022/03/22 10:27:23;;;;;;;17.65;10.13;;;;;;;23.75;29.48;101569.22;5076089;28;20020;-66
2022/03/22 10:29:49;;;;;;;16.83;10.70;;;;;;;23.78;28.51;101571.75;5090626;28;20391;-65
2022/03/22 10:32:15;;;;;;;18.40;8.95;;;;;;;23.97;27.72;101577.78;5092087;28;20028;-65
2022/03/22 10:34:41;;;;;;;16.42;10.07;;;;;;;23.94;27.91;101564.34;5099904;28;20073;-65
2022/03/22 10:37:07;;;;;;;16.65;10.25;;;;;;;23.78;26.68;101563.59;5099044;28;20016;-65
2022/03/22 10:39:39;;;;;;;17.63;9.48;;;;;;;23.20;29.03;101567.13;5091083;28;20028;-65
2022/03/22 10:42:07;;;;;;;18.60;9.80;;;;;;;22.75;28.12;101567.13;5090824;28;20024;-65
2022/03/22 10:44:37;;;;;;;18.20;9.93;;;;;;;23.12;27.94;101564.00;5091420;28;20032;-66
2022/03/22 10:47:03;;;;;;;16.73;9.50;;;;;;;22.78;27.83;101564.25;5090938;28;20372;-65
2022/03/22 10:49:29;;;;;;;16.10;9.35;;;;;;;22.70;27.98;101557.53;5090927;28;20024;-65
2022/03/22 10:51:56;;;;;;;18.80;9.75;;;;;;;23.15;27.77;101550.25;5090542;28;20107;-65
2022/03/22 10:54:25;;;;;;;16.05;9.10;;;;;;;24.02;28.99;101552.06;5090670;28;20039;-65
2022/03/22 10:56:53;;;;;;;17.27;9.43;;;;;;;24.48;26.48;101552.72;5090011;28;20082;-65
2022/03/22 10:59:24;;;;;;;18.38;9.80;;;;;;;24.68;26.52;101555.00;5090736;28;20028;-65
2022/03/22 11:01:52;;;;;;;18.23;9.75;;;;;;;24.54;24.57;101558.63;5090443;28;20449;-65
2022/03/22 11:04:21;;;;;;;18.15;9.98;;;;;;;24.59;26.14;101547.41;5090796;28;20024;-65
2022/03/22 11:06:48;;;;;;;15.13;9.68;;;;;;;24.81;25.94;101550.47;5089409;28;20036;-65
2022/03/22 11:09:17;;;;;;;17.20;9.52;;;;;;;24.96;27.07;101544.00;5089993;28;20028;-65
2022/03/22 11:11:43;;;;;;;17.52;9.50;;;;;;;25.19;24.40;101537.00;5090434;28;20085;-65
2022/03/22 11:14:12;;;;;;;17.13;8.80;;;;;;;25.43;26.08;101540.75;5090283;28;20103;-65
2022/03/22 11:16:39;;;;;;;15.55;8.80;;;;;;;25.47;25.56;101543.16;5093779;28;20062;-65
2022/03/22 11:19:05;;;;;;;16.80;8.88;;;;;;;25.44;24.32;101532.47;5110935;28;20031;-66
2022/03/22 11:21:31;;;;;;;15.05;8.35;;;;;;;24.60;23.66;101528.25;5106880;28;20097;-66
2022/03/22 11:24:10;;;;;;;17.50;10.13;;;;;;;24.94;24.14;101535.09;5072638;28;20445;-65
2022/03/22 11:26:45;;;;;;;15.57;9.10;;;;;;;24.82;24.77;101532.28;5090049;28;20583;-65
2022/03/22 11:29:17;;;;;;;19.67;9.85;;;;;;;24.71;25.15;101538.47;5090419;28;20020;-65
2022/03/22 11:34:08;;;;;;;14.98;8.38;;;;;;;25.32;25.23;101527.84;5090206;28;20566;-66
2022/03/22 11:34:30;;;;;;;12.95;8.20;;;;;;;25.43;23.40;101528.03;5090442;28;20547;-66
2022/03/22 11:36:58;;;;;;;14.35;8.23;;;;;;;25.84;23.79;101528.69;5090177;28;20024;-65
2022/03/22 11:42:16;;;;;;;12.65;7.97;;;;;;;25.78;23.04;101511.88;5096461;28;20030;-65
2022/03/22 11:44:41;;;;;;;16.33;7.72;;;;;;;26.03;22.42;101516.47;5110902;28;20031;-65
2022/03/22 11:47:17;;;;;;;16.17;9.15;;;;;;;26.34;22.84;101516.84;5110776;28;20023;-66
2022/03/22 11:50:07;;;;;;;14.20;8.68;;;;;;;26.23;21.29;101513.16;5106595;28;20090;-66